sensor_id;sensor_type;location;lat;lon;timestamp;P1;durP1;ratioP1;P2;durP2;ratioP2
50309;SDS011;36207;51.850;21.698;2023-11-19T00:02:20;41.00;;;23.70;;
50309;SDS011;36207;51.850;21.698;2023-11-19T00:04:47;41.30;;;23.10;;
50309;SDS011;36207;51.850;21.698;2023-11-19T00:07:13;44.70;;;24.80;;
50309;SDS011;36207;51.850;21.698;2023-11-19T00:09:40;44.00;;;23.70;;
50309;SDS011;36207;51.850;21.698;2023-11-19T00:12:06;44.20;;;23.70;;
50309;SDS011;36207;51.850;21.698;2023-11-19T00:14:33;38.80;;;23.00;;
50309;SDS011;36207;51.850;21.698;2023-11-19T00:17:02;41.60;;;23.80;;
50309;SDS011;36207;51.850;21.698;2023-11-19T00:19:29;39.80;;;23.50;;
50309;SDS011;36207;51.850;21.698;2023-11-19T00:21:55;39.70;;;22.70;;
50309;SDS011;36207;51.850;21.698;2023-11-19T00:24:21;43.10;;;23.50;;
50309;SDS011;36207;51.850;21.698;2023-11-19T00:26:47;42.60;;;23.20;;
50309;SDS011;36207;51.850;21.698;2023-11-19T00:29:13;42.00;;;23.20;;
50309;SDS011;36207;51.850;21.698;2023-11-19T00:31:39;40.70;;;23.40;;
50309;SDS011;36207;51.850;21.698;2023-11-19T00:34:05;41.90;;;24.10;;
50309;SDS011;36207;51.850;21.698;2023-11-19T00:36:31;41.00;;;23.70;;
50309;SDS011;36207;51.850;21.698;2023-11-19T00:38:57;42.70;;;23.80;;
50309;SDS011;36207;51.850;21.698;2023-11-19T00:41:23;42.10;;;23.60;;
50309;SDS011;36207;51.850;21.698;2023-11-19T00:43:51;40.40;;;23.20;;
50309;SDS011;36207;51.850;21.698;2023-11-19T00:46:17;41.90;;;23.00;;
50309;SDS011;36207;51.850;21.698;2023-11-19T00:48:43;43.70;;;24.30;;
50309;SDS011;36207;51.850;21.698;2023-11-19T00:51:11;46.50;;;24.60;;
50309;SDS011;36207;51.850;21.698;2023-11-19T00:53:37;44.80;;;24.70;;
50309;SDS011;36207;51.850;21.698;2023-11-19T00:56:03;48.20;;;25.60;;
50309;SDS011;36207;51.850;21.698;2023-11-19T00:58:30;47.20;;;24.90;;
50309;SDS011;36207;51.850;21.698;2023-11-19T01:00:56;51.40;;;25.20;;
50309;SDS011;36207;51.850;21.698;2023-11-19T01:03:22;44.70;;;25.00;;
50309;SDS011;36207;51.850;21.698;2023-11-19T01:05:49;44.90;;;25.00;;
50309;SDS011;36207;51.850;21.698;2023-11-19T01:08:14;45.20;;;25.20;;
50309;SDS011;36207;51.850;21.698;2023-11-19T01:10:41;49.30;;;25.70;;
50309;SDS011;36207;51.850;21.698;2023-11-19T01:13:07;46.30;;;24.70;;
50309;SDS011;36207;51.850;21.698;2023-11-19T01:15:34;49.80;;;26.00;;
50309;SDS011;36207;51.850;21.698;2023-11-19T01:18:00;47.10;;;25.60;;
50309;SDS011;36207;51.850;21.698;2023-11-19T01:20:27;49.70;;;26.70;;
50309;SDS011;36207;51.850;21.698;2023-11-19T01:22:54;46.30;;;25.60;;
50309;SDS011;36207;51.850;21.698;2023-11-19T01:25:20;53.80;;;26.10;;
50309;SDS011;36207;51.850;21.698;2023-11-19T01:27:46;49.50;;;25.80;;
50309;SDS011;36207;51.850;21.698;2023-11-19T01:30:12;51.80;;;26.50;;
50309;SDS011;36207;51.850;21.698;2023-11-19T01:32:39;52.20;;;26.10;;
50309;SDS011;36207;51.850;21.698;2023-11-19T01:35:06;56.30;;;27.40;;
50309;SDS011;36207;51.850;21.698;2023-11-19T01:37:33;64.60;;;27.50;;
50309;SDS011;36207;51.850;21.698;2023-11-19T01:40:03;60.30;;;26.70;;
50309;SDS011;36207;51.850;21.698;2023-11-19T01:42:35;63.30;;;27.70;;
50309;SDS011;36207;51.850;21.698;2023-11-19T01:45:02;77.50;;;28.20;;
50309;SDS011;36207;51.850;21.698;2023-11-19T01:47:32;75.80;;;28.60;;
50309;SDS011;36207;51.850;21.698;2023-11-19T01:49:58;97.60;;;28.60;;
50309;SDS011;36207;51.850;21.698;2023-11-19T01:52:25;87.50;;;28.70;;
50309;SDS011;36207;51.850;21.698;2023-11-19T01:54:52;60.80;;;27.80;;
50309;SDS011;36207;51.850;21.698;2023-11-19T01:57:21;74.20;;;27.30;;
50309;SDS011;36207;51.850;21.698;2023-11-19T01:59:49;57.70;;;27.30;;
50309;SDS011;36207;51.850;21.698;2023-11-19T02:02:16;52.90;;;27.00;;
50309;SDS011;36207;51.850;21.698;2023-11-19T02:04:49;56.90;;;26.80;;
50309;SDS011;36207;51.850;21.698;2023-11-19T02:07:18;101.90;;;27.70;;
50309;SDS011;36207;51.850;21.698;2023-11-19T02:09:44;113.40;;;27.70;;
50309;SDS011;36207;51.850;21.698;2023-11-19T02:12:10;112.80;;;27.20;;
50309;SDS011;36207;51.850;21.698;2023-11-19T02:14:40;109.50;;;26.40;;
50309;SDS011;36207;51.850;21.698;2023-11-19T02:17:07;60.50;;;26.10;;
50309;SDS011;36207;51.850;21.698;2023-11-19T02:19:33;76.70;;;28.70;;
50309;SDS011;36207;51.850;21.698;2023-11-19T02:21:59;84.20;;;28.70;;
50309;SDS011;36207;51.850;21.698;2023-11-19T02:24:26;72.70;;;27.80;;
50309;SDS011;36207;51.850;21.698;2023-11-19T02:27:04;88.90;;;28.00;;
50309;SDS011;36207;51.850;21.698;2023-11-19T02:29:36;58.40;;;27.30;;
50309;SDS011;36207;51.850;21.698;2023-11-19T02:32:03;63.70;;;27.70;;
50309;SDS011;36207;51.850;21.698;2023-11-19T02:34:29;60.20;;;27.60;;
50309;SDS011;36207;51.850;21.698;2023-11-19T02:36:55;61.00;;;27.90;;
50309;SDS011;36207;51.850;21.698;2023-11-19T02:39:21;61.30;;;29.00;;
50309;SDS011;36207;51.850;21.698;2023-11-19T02:41:47;64.20;;;28.60;;
50309;SDS011;36207;51.850;21.698;2023-11-19T02:44:16;63.40;;;27.30;;
50309;SDS011;36207;51.850;21.698;2023-11-19T02:46:43;60.40;;;27.70;;
50309;SDS011;36207;51.850;21.698;2023-11-19T02:49:09;66.30;;;29.70;;
50309;SDS011;36207;51.850;21.698;2023-11-19T02:51:35;59.00;;;27.50;;
50309;SDS011;36207;51.850;21.698;2023-11-19T02:54:01;57.00;;;27.70;;
50309;SDS011;36207;51.850;21.698;2023-11-19T02:56:29;53.00;;;26.70;;
50309;SDS011;36207;51.850;21.698;2023-11-19T02:59:00;58.20;;;25.50;;
50309;SDS011;36207;51.850;21.698;2023-11-19T03:01:33;57.80;;;26.70;;
50309;SDS011;36207;51.850;21.698;2023-11-19T03:04:01;63.10;;;28.10;;
50309;SDS011;36207;51.850;21.698;2023-11-19T03:06:28;61.50;;;26.90;;
50309;SDS011;36207;51.850;21.698;2023-11-19T03:08:54;51.70;;;26.20;;
50309;SDS011;36207;51.850;21.698;2023-11-19T03:11:20;50.50;;;25.50;;
50309;SDS011;36207;51.850;21.698;2023-11-19T03:13:47;54.90;;;25.20;;
50309;SDS011;36207;51.850;21.698;2023-11-19T03:16:12;55.60;;;26.30;;
50309;SDS011;36207;51.850;21.698;2023-11-19T03:18:39;49.10;;;25.60;;
50309;SDS011;36207;51.850;21.698;2023-11-19T03:21:06;52.60;;;25.10;;
50309;SDS011;36207;51.850;21.698;2023-11-19T03:23:33;50.80;;;24.70;;
50309;SDS011;36207;51.850;21.698;2023-11-19T03:26:00;50.80;;;23.90;;
50309;SDS011;36207;51.850;21.698;2023-11-19T03:28:29;50.50;;;23.40;;
50309;SDS011;36207;51.850;21.698;2023-11-19T03:30:56;42.70;;;22.90;;
50309;SDS011;36207;51.850;21.698;2023-11-19T03:33:22;44.90;;;22.60;;
50309;SDS011;36207;51.850;21.698;2023-11-19T03:35:48;44.60;;;23.90;;
50309;SDS011;36207;51.850;21.698;2023-11-19T03:38:14;46.40;;;23.20;;
50309;SDS011;36207;51.850;21.698;2023-11-19T03:40:40;42.70;;;23.70;;
50309;SDS011;36207;51.850;21.698;2023-11-19T03:43:06;47.60;;;24.10;;
50309;SDS011;36207;51.850;21.698;2023-11-19T03:45:32;45.00;;;23.50;;
50309;SDS011;36207;51.850;21.698;2023-11-19T03:47:58;42.30;;;22.20;;
50309;SDS011;36207;51.850;21.698;2023-11-19T03:50:24;43.50;;;23.00;;
50309;SDS011;36207;51.850;21.698;2023-11-19T03:52:50;39.60;;;21.50;;
50309;SDS011;36207;51.850;21.698;2023-11-19T03:55:16;40.20;;;21.80;;
50309;SDS011;36207;51.850;21.698;2023-11-19T03:57:42;46.30;;;21.80;;
50309;SDS011;36207;51.850;21.698;2023-11-19T04:00:09;40.20;;;21.50;;
50309;SDS011;36207;51.850;21.698;2023-11-19T04:02:36;41.00;;;21.00;;
50309;SDS011;36207;51.850;21.698;2023-11-19T04:05:02;39.80;;;20.70;;
50309;SDS011;36207;51.850;21.698;2023-11-19T04:07:30;41.30;;;20.90;;
50309;SDS011;36207;51.850;21.698;2023-11-19T04:09:57;35.10;;;19.90;;
50309;SDS011;36207;51.850;21.698;2023-11-19T04:12:23;38.60;;;20.60;;
50309;SDS011;36207;51.850;21.698;2023-11-19T04:14:49;38.50;;;19.50;;
50309;SDS011;36207;51.850;21.698;2023-11-19T04:17:15;39.50;;;20.90;;
50309;SDS011;36207;51.850;21.698;2023-11-19T04:19:41;38.40;;;19.50;;
50309;SDS011;36207;51.850;21.698;2023-11-19T04:22:07;38.30;;;19.70;;
50309;SDS011;36207;51.850;21.698;2023-11-19T04:24:35;35.20;;;19.40;;
50309;SDS011;36207;51.850;21.698;2023-11-19T04:27:01;38.30;;;19.80;;
50309;SDS011;36207;51.850;21.698;2023-11-19T04:29:27;37.20;;;19.30;;
50309;SDS011;36207;51.850;21.698;2023-11-19T04:31:53;37.30;;;19.70;;
50309;SDS011;36207;51.850;21.698;2023-11-19T04:34:19;36.70;;;19.50;;
50309;SDS011;36207;51.850;21.698;2023-11-19T04:36:45;38.10;;;20.20;;
50309;SDS011;36207;51.850;21.698;2023-11-19T04:39:11;35.20;;;19.10;;
50309;SDS011;36207;51.850;21.698;2023-11-19T04:44:20;36.80;;;18.60;;
50309;SDS011;36207;51.850;21.698;2023-11-19T04:46:47;33.60;;;18.40;;
50309;SDS011;36207;51.850;21.698;2023-11-19T04:49:13;33.90;;;18.60;;
50309;SDS011;36207;51.850;21.698;2023-11-19T04:51:40;33.40;;;18.80;;
50309;SDS011;36207;51.850;21.698;2023-11-19T04:54:08;34.10;;;18.10;;
50309;SDS011;36207;51.850;21.698;2023-11-19T04:56:37;32.80;;;17.80;;
50309;SDS011;36207;51.850;21.698;2023-11-19T04:59:03;33.10;;;18.30;;
50309;SDS011;36207;51.850;21.698;2023-11-19T05:01:34;35.10;;;19.10;;
50309;SDS011;36207;51.850;21.698;2023-11-19T05:04:01;35.60;;;18.70;;
50309;SDS011;36207;51.850;21.698;2023-11-19T05:06:28;36.80;;;19.40;;
50309;SDS011;36207;51.850;21.698;2023-11-19T05:09:01;36.80;;;20.20;;
50309;SDS011;36207;51.850;21.698;2023-11-19T05:11:30;38.30;;;19.20;;
50309;SDS011;36207;51.850;21.698;2023-11-19T05:13:57;37.60;;;18.90;;
50309;SDS011;36207;51.850;21.698;2023-11-19T05:16:24;39.70;;;18.30;;
50309;SDS011;36207;51.850;21.698;2023-11-19T05:18:50;42.10;;;18.40;;
50309;SDS011;36207;51.850;21.698;2023-11-19T05:21:16;38.50;;;18.40;;
50309;SDS011;36207;51.850;21.698;2023-11-19T05:23:43;40.90;;;19.00;;
50309;SDS011;36207;51.850;21.698;2023-11-19T05:26:09;38.70;;;18.80;;
50309;SDS011;36207;51.850;21.698;2023-11-19T05:28:37;37.00;;;18.00;;
50309;SDS011;36207;51.850;21.698;2023-11-19T05:31:05;39.30;;;18.50;;
50309;SDS011;36207;51.850;21.698;2023-11-19T05:33:31;39.00;;;18.70;;
50309;SDS011;36207;51.850;21.698;2023-11-19T05:35:57;43.50;;;19.60;;
50309;SDS011;36207;51.850;21.698;2023-11-19T05:38:23;43.20;;;19.70;;
50309;SDS011;36207;51.850;21.698;2023-11-19T05:40:49;69.00;;;19.00;;
50309;SDS011;36207;51.850;21.698;2023-11-19T05:43:15;49.60;;;18.50;;
50309;SDS011;36207;51.850;21.698;2023-11-19T05:45:42;40.70;;;18.70;;
50309;SDS011;36207;51.850;21.698;2023-11-19T05:48:09;37.90;;;17.80;;
50309;SDS011;36207;51.850;21.698;2023-11-19T05:50:35;40.50;;;19.40;;
50309;SDS011;36207;51.850;21.698;2023-11-19T05:53:01;41.70;;;19.20;;
50309;SDS011;36207;51.850;21.698;2023-11-19T05:55:27;39.40;;;19.10;;
50309;SDS011;36207;51.850;21.698;2023-11-19T05:57:53;33.90;;;17.60;;
50309;SDS011;36207;51.850;21.698;2023-11-19T06:00:19;32.20;;;16.60;;
50309;SDS011;36207;51.850;21.698;2023-11-19T06:02:45;33.30;;;17.40;;
50309;SDS011;36207;51.850;21.698;2023-11-19T06:05:11;31.90;;;16.50;;
50309;SDS011;36207;51.850;21.698;2023-11-19T06:07:37;28.60;;;16.00;;
50309;SDS011;36207;51.850;21.698;2023-11-19T06:10:04;30.10;;;16.10;;
50309;SDS011;36207;51.850;21.698;2023-11-19T06:12:33;27.80;;;14.70;;
50309;SDS011;36207;51.850;21.698;2023-11-19T06:15:04;27.20;;;14.30;;
50309;SDS011;36207;51.850;21.698;2023-11-19T06:17:31;25.50;;;13.90;;
50309;SDS011;36207;51.850;21.698;2023-11-19T06:19:57;26.10;;;14.00;;
50309;SDS011;36207;51.850;21.698;2023-11-19T06:22:23;25.40;;;13.70;;
50309;SDS011;36207;51.850;21.698;2023-11-19T06:24:49;25.10;;;14.30;;
50309;SDS011;36207;51.850;21.698;2023-11-19T06:27:15;26.10;;;14.20;;
50309;SDS011;36207;51.850;21.698;2023-11-19T06:29:41;25.70;;;14.80;;
50309;SDS011;36207;51.850;21.698;2023-11-19T06:32:07;29.60;;;15.40;;
50309;SDS011;36207;51.850;21.698;2023-11-19T06:34:34;26.70;;;15.20;;
50309;SDS011;36207;51.850;21.698;2023-11-19T06:37:00;28.10;;;14.90;;
50309;SDS011;36207;51.850;21.698;2023-11-19T06:39:26;27.80;;;14.50;;
50309;SDS011;36207;51.850;21.698;2023-11-19T06:41:52;28.20;;;15.00;;
50309;SDS011;36207;51.850;21.698;2023-11-19T06:44:18;31.20;;;15.90;;
50309;SDS011;36207;51.850;21.698;2023-11-19T06:46:44;29.50;;;16.00;;
50309;SDS011;36207;51.850;21.698;2023-11-19T06:49:10;32.10;;;16.90;;
50309;SDS011;36207;51.850;21.698;2023-11-19T06:51:41;33.80;;;17.90;;
50309;SDS011;36207;51.850;21.698;2023-11-19T06:54:07;34.50;;;18.80;;
50309;SDS011;36207;51.850;21.698;2023-11-19T06:56:33;37.90;;;19.90;;
50309;SDS011;36207;51.850;21.698;2023-11-19T06:58:59;34.20;;;17.70;;
50309;SDS011;36207;51.850;21.698;2023-11-19T07:01:25;37.00;;;18.10;;
50309;SDS011;36207;51.850;21.698;2023-11-19T07:03:51;33.70;;;17.90;;
50309;SDS011;36207;51.850;21.698;2023-11-19T07:06:17;35.50;;;17.80;;
50309;SDS011;36207;51.850;21.698;2023-11-19T07:08:44;35.70;;;17.90;;
50309;SDS011;36207;51.850;21.698;2023-11-19T07:11:13;33.70;;;18.20;;
50309;SDS011;36207;51.850;21.698;2023-11-19T07:13:42;39.40;;;19.40;;
50309;SDS011;36207;51.850;21.698;2023-11-19T07:16:08;33.50;;;17.80;;
50309;SDS011;36207;51.850;21.698;2023-11-19T07:18:37;39.40;;;18.80;;
50309;SDS011;36207;51.850;21.698;2023-11-19T07:21:04;33.80;;;18.20;;
50309;SDS011;36207;51.850;21.698;2023-11-19T07:23:30;33.30;;;18.70;;
50309;SDS011;36207;51.850;21.698;2023-11-19T07:25:56;35.50;;;18.40;;
50309;SDS011;36207;51.850;21.698;2023-11-19T07:28:22;31.90;;;17.60;;
50309;SDS011;36207;51.850;21.698;2023-11-19T07:30:48;31.40;;;17.30;;
50309;SDS011;36207;51.850;21.698;2023-11-19T07:33:15;35.80;;;17.70;;
50309;SDS011;36207;51.850;21.698;2023-11-19T07:35:42;31.10;;;17.20;;
50309;SDS011;36207;51.850;21.698;2023-11-19T07:38:09;33.00;;;17.20;;
50309;SDS011;36207;51.850;21.698;2023-11-19T07:40:35;30.20;;;16.50;;
50309;SDS011;36207;51.850;21.698;2023-11-19T07:43:01;32.30;;;17.30;;
50309;SDS011;36207;51.850;21.698;2023-11-19T07:45:27;32.60;;;17.20;;
50309;SDS011;36207;51.850;21.698;2023-11-19T07:47:53;34.20;;;18.10;;
50309;SDS011;36207;51.850;21.698;2023-11-19T07:50:20;30.60;;;16.30;;
50309;SDS011;36207;51.850;21.698;2023-11-19T07:52:46;32.20;;;17.40;;
50309;SDS011;36207;51.850;21.698;2023-11-19T07:55:12;31.70;;;17.60;;
50309;SDS011;36207;51.850;21.698;2023-11-19T07:57:38;31.30;;;16.60;;
50309;SDS011;36207;51.850;21.698;2023-11-19T08:00:04;27.90;;;15.90;;
50309;SDS011;36207;51.850;21.698;2023-11-19T08:02:31;29.30;;;16.00;;
50309;SDS011;36207;51.850;21.698;2023-11-19T08:04:57;31.60;;;16.30;;
50309;SDS011;36207;51.850;21.698;2023-11-19T08:07:22;28.10;;;15.70;;
50309;SDS011;36207;51.850;21.698;2023-11-19T08:09:49;30.30;;;16.90;;
50309;SDS011;36207;51.850;21.698;2023-11-19T08:12:14;28.60;;;16.60;;
50309;SDS011;36207;51.850;21.698;2023-11-19T08:14:42;30.70;;;17.00;;
50309;SDS011;36207;51.850;21.698;2023-11-19T08:17:09;29.40;;;16.80;;
50309;SDS011;36207;51.850;21.698;2023-11-19T08:19:35;31.40;;;17.10;;
50309;SDS011;36207;51.850;21.698;2023-11-19T08:22:02;29.30;;;16.50;;
50309;SDS011;36207;51.850;21.698;2023-11-19T08:24:27;28.60;;;15.60;;
50309;SDS011;36207;51.850;21.698;2023-11-19T08:26:53;25.80;;;15.20;;
50309;SDS011;36207;51.850;21.698;2023-11-19T08:29:19;28.50;;;16.10;;
50309;SDS011;36207;51.850;21.698;2023-11-19T08:31:47;25.80;;;15.30;;
50309;SDS011;36207;51.850;21.698;2023-11-19T08:34:13;28.90;;;16.50;;
50309;SDS011;36207;51.850;21.698;2023-11-19T08:36:39;29.00;;;16.10;;
50309;SDS011;36207;51.850;21.698;2023-11-19T08:39:04;31.40;;;18.20;;
50309;SDS011;36207;51.850;21.698;2023-11-19T08:41:30;30.00;;;16.70;;
50309;SDS011;36207;51.850;21.698;2023-11-19T08:43:56;30.70;;;17.10;;
50309;SDS011;36207;51.850;21.698;2023-11-19T08:46:22;31.50;;;17.90;;
50309;SDS011;36207;51.850;21.698;2023-11-19T08:48:48;31.80;;;18.90;;
50309;SDS011;36207;51.850;21.698;2023-11-19T08:51:14;32.60;;;19.20;;
50309;SDS011;36207;51.850;21.698;2023-11-19T08:53:40;32.90;;;19.60;;
50309;SDS011;36207;51.850;21.698;2023-11-19T08:56:06;33.70;;;19.80;;
50309;SDS011;36207;51.850;21.698;2023-11-19T08:58:32;32.00;;;20.60;;
50309;SDS011;36207;51.850;21.698;2023-11-19T09:00:58;31.30;;;19.30;;
50309;SDS011;36207;51.850;21.698;2023-11-19T09:03:24;28.30;;;17.60;;
50309;SDS011;36207;51.850;21.698;2023-11-19T09:05:52;28.40;;;16.90;;
50309;SDS011;36207;51.850;21.698;2023-11-19T09:08:18;28.80;;;16.80;;
50309;SDS011;36207;51.850;21.698;2023-11-19T09:10:44;30.10;;;18.10;;
50309;SDS011;36207;51.850;21.698;2023-11-19T09:13:10;25.70;;;16.00;;
50309;SDS011;36207;51.850;21.698;2023-11-19T09:15:36;32.00;;;17.60;;
50309;SDS011;36207;51.850;21.698;2023-11-19T09:18:02;31.50;;;18.10;;
50309;SDS011;36207;51.850;21.698;2023-11-19T09:20:29;32.20;;;18.30;;
50309;SDS011;36207;51.850;21.698;2023-11-19T09:23:04;28.40;;;16.40;;
50309;SDS011;36207;51.850;21.698;2023-11-19T09:25:31;28.30;;;16.40;;
50309;SDS011;36207;51.850;21.698;2023-11-19T09:27:57;29.00;;;17.60;;
50309;SDS011;36207;51.850;21.698;2023-11-19T09:30:23;28.50;;;17.10;;
50309;SDS011;36207;51.850;21.698;2023-11-19T09:32:49;28.90;;;16.70;;
50309;SDS011;36207;51.850;21.698;2023-11-19T09:35:15;28.90;;;16.80;;
50309;SDS011;36207;51.850;21.698;2023-11-19T09:37:42;27.80;;;16.80;;
50309;SDS011;36207;51.850;21.698;2023-11-19T09:40:09;27.10;;;16.40;;
50309;SDS011;36207;51.850;21.698;2023-11-19T09:42:53;28.00;;;16.20;;
50309;SDS011;36207;51.850;21.698;2023-11-19T09:45:20;26.50;;;15.90;;
50309;SDS011;36207;51.850;21.698;2023-11-19T09:47:46;27.30;;;16.40;;
50309;SDS011;36207;51.850;21.698;2023-11-19T09:50:17;29.30;;;16.70;;
50309;SDS011;36207;51.850;21.698;2023-11-19T09:52:44;25.10;;;16.10;;
50309;SDS011;36207;51.850;21.698;2023-11-19T09:55:11;28.00;;;16.50;;
50309;SDS011;36207;51.850;21.698;2023-11-19T09:57:40;28.70;;;17.70;;
50309;SDS011;36207;51.850;21.698;2023-11-19T10:00:10;27.90;;;16.60;;
50309;SDS011;36207;51.850;21.698;2023-11-19T10:02:40;29.50;;;17.50;;
50309;SDS011;36207;51.850;21.698;2023-11-19T10:05:07;29.60;;;16.90;;
50309;SDS011;36207;51.850;21.698;2023-11-19T10:07:34;27.70;;;16.90;;
50309;SDS011;36207;51.850;21.698;2023-11-19T10:10:00;28.90;;;17.50;;
50309;SDS011;36207;51.850;21.698;2023-11-19T10:12:27;28.00;;;17.10;;
50309;SDS011;36207;51.850;21.698;2023-11-19T10:14:55;25.40;;;16.20;;
50309;SDS011;36207;51.850;21.698;2023-11-19T10:17:26;29.10;;;16.70;;
50309;SDS011;36207;51.850;21.698;2023-11-19T10:19:55;29.40;;;17.30;;
50309;SDS011;36207;51.850;21.698;2023-11-19T10:22:22;29.00;;;17.20;;
50309;SDS011;36207;51.850;21.698;2023-11-19T10:24:50;27.40;;;16.70;;
50309;SDS011;36207;51.850;21.698;2023-11-19T10:27:17;24.10;;;15.00;;
50309;SDS011;36207;51.850;21.698;2023-11-19T10:29:47;22.90;;;14.00;;
50309;SDS011;36207;51.850;21.698;2023-11-19T10:32:13;22.80;;;13.70;;
50309;SDS011;36207;51.850;21.698;2023-11-19T10:34:42;23.20;;;14.20;;
50309;SDS011;36207;51.850;21.698;2023-11-19T10:37:10;22.40;;;14.20;;
50309;SDS011;36207;51.850;21.698;2023-11-19T10:39:54;24.80;;;14.90;;
50309;SDS011;36207;51.850;21.698;2023-11-19T10:42:21;25.20;;;15.60;;
50309;SDS011;36207;51.850;21.698;2023-11-19T10:44:47;21.50;;;13.80;;
50309;SDS011;36207;51.850;21.698;2023-11-19T10:47:13;24.50;;;15.30;;
50309;SDS011;36207;51.850;21.698;2023-11-19T10:49:42;24.10;;;14.90;;
50309;SDS011;36207;51.850;21.698;2023-11-19T10:52:09;26.90;;;15.70;;
50309;SDS011;36207;51.850;21.698;2023-11-19T10:54:35;27.40;;;18.60;;
50309;SDS011;36207;51.850;21.698;2023-11-19T10:57:01;26.70;;;17.60;;
50309;SDS011;36207;51.850;21.698;2023-11-19T10:59:29;25.30;;;16.70;;
50309;SDS011;36207;51.850;21.698;2023-11-19T11:01:57;24.20;;;15.10;;
50309;SDS011;36207;51.850;21.698;2023-11-19T11:04:29;23.60;;;15.90;;
50309;SDS011;36207;51.850;21.698;2023-11-19T11:06:58;24.90;;;15.60;;
50309;SDS011;36207;51.850;21.698;2023-11-19T11:09:27;27.10;;;17.10;;
50309;SDS011;36207;51.850;21.698;2023-11-19T11:11:54;26.80;;;17.20;;
50309;SDS011;36207;51.850;21.698;2023-11-19T11:14:22;28.60;;;18.70;;
50309;SDS011;36207;51.850;21.698;2023-11-19T11:16:50;24.50;;;16.30;;
50309;SDS011;36207;51.850;21.698;2023-11-19T11:19:19;24.50;;;15.60;;
50309;SDS011;36207;51.850;21.698;2023-11-19T11:21:46;24.80;;;16.40;;
50309;SDS011;36207;51.850;21.698;2023-11-19T11:38:46;24.60;;;15.90;;
50309;SDS011;36207;51.850;21.698;2023-11-19T11:41:17;26.00;;;16.50;;
50309;SDS011;36207;51.850;21.698;2023-11-19T11:43:51;27.50;;;16.00;;
50309;SDS011;36207;51.850;21.698;2023-11-19T11:49:03;26.20;;;16.60;;
50309;SDS011;36207;51.850;21.698;2023-11-19T11:57:01;28.00;;;17.80;;
50309;SDS011;36207;51.850;21.698;2023-11-19T12:02:10;30.10;;;18.10;;
50309;SDS011;36207;51.850;21.698;2023-11-19T12:04:41;26.10;;;16.70;;
50309;SDS011;36207;51.850;21.698;2023-11-19T12:07:08;22.90;;;14.90;;
50309;SDS011;36207;51.850;21.698;2023-11-19T12:09:45;26.40;;;15.90;;
50309;SDS011;36207;51.850;21.698;2023-11-19T12:12:42;23.50;;;15.50;;
50309;SDS011;36207;51.850;21.698;2023-11-19T12:15:08;25.80;;;15.80;;
50309;SDS011;36207;51.850;21.698;2023-11-19T12:20:07;23.60;;;15.70;;
50309;SDS011;36207;51.850;21.698;2023-11-19T12:22:38;23.20;;;15.10;;
50309;SDS011;36207;51.850;21.698;2023-11-19T12:25:05;25.60;;;15.70;;
50309;SDS011;36207;51.850;21.698;2023-11-19T12:27:32;25.20;;;16.50;;
50309;SDS011;36207;51.850;21.698;2023-11-19T12:30:02;27.80;;;16.30;;
50309;SDS011;36207;51.850;21.698;2023-11-19T12:32:41;25.80;;;15.50;;
50309;SDS011;36207;51.850;21.698;2023-11-19T12:35:08;27.90;;;17.40;;
50309;SDS011;36207;51.850;21.698;2023-11-19T12:37:45;23.30;;;14.90;;
50309;SDS011;36207;51.850;21.698;2023-11-19T12:42:38;24.10;;;16.00;;
50309;SDS011;36207;51.850;21.698;2023-11-19T12:45:05;24.70;;;16.00;;
50309;SDS011;36207;51.850;21.698;2023-11-19T12:47:31;25.60;;;15.60;;
50309;SDS011;36207;51.850;21.698;2023-11-19T12:49:57;24.60;;;15.60;;
50309;SDS011;36207;51.850;21.698;2023-11-19T12:52:23;27.90;;;17.60;;
50309;SDS011;36207;51.850;21.698;2023-11-19T12:54:49;27.90;;;17.00;;
50309;SDS011;36207;51.850;21.698;2023-11-19T12:57:16;27.90;;;17.90;;
50309;SDS011;36207;51.850;21.698;2023-11-19T12:59:54;27.40;;;17.50;;
50309;SDS011;36207;51.850;21.698;2023-11-19T13:02:33;30.60;;;19.10;;
50309;SDS011;36207;51.850;21.698;2023-11-19T13:05:24;29.50;;;18.40;;
50309;SDS011;36207;51.850;21.698;2023-11-19T13:07:59;32.90;;;19.60;;
50309;SDS011;36207;51.850;21.698;2023-11-19T13:10:26;27.80;;;18.10;;
50309;SDS011;36207;51.850;21.698;2023-11-19T13:13:26;27.40;;;17.70;;
50309;SDS011;36207;51.850;21.698;2023-11-19T13:15:45;31.80;;;19.20;;
50309;SDS011;36207;51.850;21.698;2023-11-19T13:18:12;28.90;;;17.90;;
50309;SDS011;36207;51.850;21.698;2023-11-19T13:20:40;34.80;;;19.70;;
50309;SDS011;36207;51.850;21.698;2023-11-19T13:23:06;38.60;;;21.50;;
50309;SDS011;36207;51.850;21.698;2023-11-19T13:25:36;35.70;;;20.30;;
50309;SDS011;36207;51.850;21.698;2023-11-19T13:28:02;29.20;;;18.10;;
50309;SDS011;36207;51.850;21.698;2023-11-19T13:30:28;29.70;;;17.70;;
50309;SDS011;36207;51.850;21.698;2023-11-19T13:32:57;30.40;;;18.50;;
50309;SDS011;36207;51.850;21.698;2023-11-19T13:35:24;27.70;;;18.00;;
50309;SDS011;36207;51.850;21.698;2023-11-19T13:37:50;26.50;;;17.10;;
50309;SDS011;36207;51.850;21.698;2023-11-19T13:40:17;26.60;;;17.30;;
50309;SDS011;36207;51.850;21.698;2023-11-19T13:42:44;28.40;;;17.40;;
50309;SDS011;36207;51.850;21.698;2023-11-19T13:45:11;25.80;;;16.50;;
50309;SDS011;36207;51.850;21.698;2023-11-19T13:47:39;29.30;;;18.20;;
50309;SDS011;36207;51.850;21.698;2023-11-19T13:50:09;29.20;;;18.20;;
50309;SDS011;36207;51.850;21.698;2023-11-19T13:52:41;30.40;;;18.60;;
50309;SDS011;36207;51.850;21.698;2023-11-19T13:55:08;31.20;;;18.50;;
50309;SDS011;36207;51.850;21.698;2023-11-19T13:57:36;30.90;;;18.70;;
50309;SDS011;36207;51.850;21.698;2023-11-19T14:00:04;29.00;;;17.70;;
50309;SDS011;36207;51.850;21.698;2023-11-19T14:02:35;28.70;;;17.50;;
50309;SDS011;36207;51.850;21.698;2023-11-19T14:05:02;29.10;;;17.20;;
50309;SDS011;36207;51.850;21.698;2023-11-19T14:07:28;29.90;;;17.40;;
50309;SDS011;36207;51.850;21.698;2023-11-19T14:09:54;32.80;;;19.50;;
50309;SDS011;36207;51.850;21.698;2023-11-19T14:12:20;34.20;;;19.40;;
50309;SDS011;36207;51.850;21.698;2023-11-19T14:14:46;34.50;;;19.80;;
50309;SDS011;36207;51.850;21.698;2023-11-19T14:17:12;33.60;;;19.40;;
50309;SDS011;36207;51.850;21.698;2023-11-19T14:19:38;29.30;;;18.50;;
50309;SDS011;36207;51.850;21.698;2023-11-19T14:22:04;34.30;;;20.00;;
50309;SDS011;36207;51.850;21.698;2023-11-19T14:24:31;35.80;;;19.20;;
50309;SDS011;36207;51.850;21.698;2023-11-19T14:26:57;32.20;;;20.10;;
50309;SDS011;36207;51.850;21.698;2023-11-19T14:29:27;29.70;;;18.50;;
50309;SDS011;36207;51.850;21.698;2023-11-19T14:31:56;28.10;;;18.10;;
50309;SDS011;36207;51.850;21.698;2023-11-19T14:34:24;30.40;;;19.30;;
50309;SDS011;36207;51.850;21.698;2023-11-19T14:36:52;26.70;;;18.10;;
50309;SDS011;36207;51.850;21.698;2023-11-19T14:39:19;31.80;;;18.60;;
50309;SDS011;36207;51.850;21.698;2023-11-19T14:41:45;28.10;;;17.60;;
50309;SDS011;36207;51.850;21.698;2023-11-19T14:44:11;30.00;;;18.30;;